sensor_id;sensor_type;location;lat;lon;timestamp;P1;durP1;ratioP1;P2;durP2;ratioP2
50249;SDS011;36133;42.522;27.456;2023-04-08T00:00:44;30.92;;;20.95;;
50249;SDS011;36133;42.522;27.456;2023-04-08T00:03:10;34.08;;;21.50;;
50249;SDS011;36133;42.522;27.456;2023-04-08T00:05:35;33.58;;;21.83;;
50249;SDS011;36133;42.522;27.456;2023-04-08T00:08:01;34.22;;;21.75;;
50249;SDS011;36133;42.522;27.456;2023-04-08T00:10:27;32.33;;;22.00;;
50249;SDS011;36133;42.522;27.456;2023-04-08T00:12:52;30.90;;;21.52;;
50249;SDS011;36133;42.522;27.456;2023-04-08T00:15:19;35.75;;;21.90;;
50249;SDS011;36133;42.522;27.456;2023-04-08T00:17:48;37.17;;;22.23;;
50249;SDS011;36133;42.522;27.456;2023-04-08T00:20:18;31.85;;;22.27;;
50249;SDS011;36133;42.522;27.456;2023-04-08T00:22:45;32.15;;;21.80;;
50249;SDS011;36133;42.522;27.456;2023-04-08T00:25:10;35.65;;;22.42;;
50249;SDS011;36133;42.522;27.456;2023-04-08T00:27:36;40.50;;;21.83;;
50249;SDS011;36133;42.522;27.456;2023-04-08T00:30:02;42.67;;;24.00;;
50249;SDS011;36133;42.522;27.456;2023-04-08T00:32:28;34.75;;;22.38;;
50249;SDS011;36133;42.522;27.456;2023-04-08T00:34:54;31.23;;;22.33;;
50249;SDS011;36133;42.522;27.456;2023-04-08T00:37:20;40.72;;;22.98;;
50249;SDS011;36133;42.522;27.456;2023-04-08T00:39:47;32.33;;;21.73;;
50249;SDS011;36133;42.522;27.456;2023-04-08T00:42:12;37.10;;;24.13;;
50249;SDS011;36133;42.522;27.456;2023-04-08T00:44:38;40.38;;;24.50;;
50249;SDS011;36133;42.522;27.456;2023-04-08T00:47:06;39.22;;;24.77;;
50249;SDS011;36133;42.522;27.456;2023-04-08T00:49:32;36.55;;;24.88;;
50249;SDS011;36133;42.522;27.456;2023-04-08T00:51:58;47.58;;;26.25;;
50249;SDS011;36133;42.522;27.456;2023-04-08T00:54:24;42.33;;;28.20;;
50249;SDS011;36133;42.522;27.456;2023-04-08T00:56:50;46.22;;;28.10;;
50249;SDS011;36133;42.522;27.456;2023-04-08T00:59:16;51.20;;;28.83;;
50249;SDS011;36133;42.522;27.456;2023-04-08T01:07:27;52.58;;;30.70;;
50249;SDS011;36133;42.522;27.456;2023-04-08T01:10:12;48.58;;;30.25;;
50249;SDS011;36133;42.522;27.456;2023-04-08T01:12:42;56.55;;;29.88;;
50249;SDS011;36133;42.522;27.456;2023-04-08T01:15:12;49.33;;;30.98;;
50249;SDS011;36133;42.522;27.456;2023-04-08T01:17:41;49.42;;;30.73;;
50249;SDS011;36133;42.522;27.456;2023-04-08T01:20:08;50.70;;;30.63;;
50249;SDS011;36133;42.522;27.456;2023-04-08T01:22:57;48.90;;;30.55;;
50249;SDS011;36133;42.522;27.456;2023-04-08T01:25:34;49.55;;;30.88;;
50249;SDS011;36133;42.522;27.456;2023-04-08T01:28:08;50.35;;;30.80;;
50249;SDS011;36133;42.522;27.456;2023-04-08T01:30:39;52.78;;;32.38;;
50249;SDS011;36133;42.522;27.456;2023-04-08T01:33:06;54.65;;;33.13;;
50249;SDS011;36133;42.522;27.456;2023-04-08T01:35:35;54.88;;;33.80;;
50249;SDS011;36133;42.522;27.456;2023-04-08T01:38:02;52.42;;;33.45;;
50249;SDS011;36133;42.522;27.456;2023-04-08T01:40:31;55.03;;;33.40;;
50249;SDS011;36133;42.522;27.456;2023-04-08T01:42:59;50.97;;;31.02;;
50249;SDS011;36133;42.522;27.456;2023-04-08T01:45:26;53.05;;;30.95;;
50249;SDS011;36133;42.522;27.456;2023-04-08T01:47:52;54.08;;;32.10;;
50249;SDS011;36133;42.522;27.456;2023-04-08T01:50:20;56.55;;;33.22;;
50249;SDS011;36133;42.522;27.456;2023-04-08T01:52:47;49.65;;;31.77;;
50249;SDS011;36133;42.522;27.456;2023-04-08T01:55:18;50.53;;;31.98;;
50249;SDS011;36133;42.522;27.456;2023-04-08T01:57:46;66.47;;;34.30;;
50249;SDS011;36133;42.522;27.456;2023-04-08T02:00:23;61.35;;;34.60;;
50249;SDS011;36133;42.522;27.456;2023-04-08T02:02:52;55.95;;;34.60;;
50249;SDS011;36133;42.522;27.456;2023-04-08T02:05:19;57.05;;;36.42;;
50249;SDS011;36133;42.522;27.456;2023-04-08T02:07:46;61.10;;;36.15;;
50249;SDS011;36133;42.522;27.456;2023-04-08T02:10:12;64.03;;;37.78;;
50249;SDS011;36133;42.522;27.456;2023-04-08T02:12:41;64.38;;;39.00;;
50249;SDS011;36133;42.522;27.456;2023-04-08T02:15:10;77.22;;;41.95;;
50249;SDS011;36133;42.522;27.456;2023-04-08T02:20:07;67.05;;;40.92;;
50249;SDS011;36133;42.522;27.456;2023-04-08T02:25:29;70.90;;;41.35;;
50249;SDS011;36133;42.522;27.456;2023-04-08T02:28:02;80.45;;;44.30;;
50249;SDS011;36133;42.522;27.456;2023-04-08T02:30:30;89.78;;;48.40;;
50249;SDS011;36133;42.522;27.456;2023-04-08T02:32:57;84.85;;;48.47;;
50249;SDS011;36133;42.522;27.456;2023-04-08T02:35:27;89.68;;;47.78;;
50249;SDS011;36133;42.522;27.456;2023-04-08T02:37:53;87.35;;;48.95;;
50249;SDS011;36133;42.522;27.456;2023-04-08T02:40:26;89.82;;;49.75;;
50249;SDS011;36133;42.522;27.456;2023-04-08T02:42:55;92.43;;;49.65;;
50249;SDS011;36133;42.522;27.456;2023-04-08T02:45:22;83.10;;;49.17;;
50249;SDS011;36133;42.522;27.456;2023-04-08T02:47:54;82.45;;;46.88;;
50249;SDS011;36133;42.522;27.456;2023-04-08T02:50:19;87.43;;;45.10;;
50249;SDS011;36133;42.522;27.456;2023-04-08T02:52:45;86.47;;;46.63;;
50249;SDS011;36133;42.522;27.456;2023-04-08T02:55:13;90.60;;;48.33;;
50249;SDS011;36133;42.522;27.456;2023-04-08T02:57:39;89.45;;;49.25;;
50249;SDS011;36133;42.522;27.456;2023-04-08T03:00:06;99.72;;;52.13;;
50249;SDS011;36133;42.522;27.456;2023-04-08T03:02:33;100.78;;;52.90;;
50249;SDS011;36133;42.522;27.456;2023-04-08T03:04:58;105.85;;;53.92;;
50249;SDS011;36133;42.522;27.456;2023-04-08T03:07:24;103.43;;;53.92;;
50249;SDS011;36133;42.522;27.456;2023-04-08T03:09:50;101.57;;;53.00;;
50249;SDS011;36133;42.522;27.456;2023-04-08T03:12:16;92.18;;;49.60;;
50249;SDS011;36133;42.522;27.456;2023-04-08T03:14:41;88.05;;;48.58;;
50249;SDS011;36133;42.522;27.456;2023-04-08T03:17:07;85.80;;;48.13;;
50249;SDS011;36133;42.522;27.456;2023-04-08T03:19:32;80.22;;;45.47;;
50249;SDS011;36133;42.522;27.456;2023-04-08T03:21:58;75.90;;;43.38;;
50249;SDS011;36133;42.522;27.456;2023-04-08T03:24:24;72.38;;;41.15;;
50249;SDS011;36133;42.522;27.456;2023-04-08T03:26:49;74.03;;;42.03;;
50249;SDS011;36133;42.522;27.456;2023-04-08T03:29:17;72.88;;;41.85;;
50249;SDS011;36133;42.522;27.456;2023-04-08T03:31:43;62.55;;;38.28;;
50249;SDS011;36133;42.522;27.456;2023-04-08T03:34:12;62.80;;;38.58;;
50249;SDS011;36133;42.522;27.456;2023-04-08T03:36:37;60.58;;;37.35;;
50249;SDS011;36133;42.522;27.456;2023-04-08T03:39:06;57.33;;;36.83;;
50249;SDS011;36133;42.522;27.456;2023-04-08T03:41:31;65.70;;;36.35;;
50249;SDS011;36133;42.522;27.456;2023-04-08T03:43:57;69.13;;;37.42;;
50249;SDS011;36133;42.522;27.456;2023-04-08T03:46:22;66.18;;;36.33;;
50249;SDS011;36133;42.522;27.456;2023-04-08T03:48:51;57.17;;;34.10;;
50249;SDS011;36133;42.522;27.456;2023-04-08T03:51:17;52.78;;;31.90;;
50249;SDS011;36133;42.522;27.456;2023-04-08T03:53:42;53.90;;;31.52;;
50249;SDS011;36133;42.522;27.456;2023-04-08T03:56:08;56.70;;;31.73;;
50249;SDS011;36133;42.522;27.456;2023-04-08T03:58:33;51.88;;;31.00;;
50249;SDS011;36133;42.522;27.456;2023-04-08T04:00:59;55.97;;;31.20;;
50249;SDS011;36133;42.522;27.456;2023-04-08T04:03:25;59.38;;;32.85;;
50249;SDS011;36133;42.522;27.456;2023-04-08T04:05:51;64.95;;;34.55;;
50249;SDS011;36133;42.522;27.456;2023-04-08T04:08:16;59.40;;;34.72;;
50249;SDS011;36133;42.522;27.456;2023-04-08T04:10:42;59.58;;;35.00;;
50249;SDS011;36133;42.522;27.456;2023-04-08T04:13:08;56.00;;;33.95;;
50249;SDS011;36133;42.522;27.456;2023-04-08T04:15:38;64.72;;;34.08;;
50249;SDS011;36133;42.522;27.456;2023-04-08T04:18:04;63.95;;;35.55;;
50249;SDS011;36133;42.522;27.456;2023-04-08T04:20:30;67.57;;;34.08;;
50249;SDS011;36133;42.522;27.456;2023-04-08T04:22:56;55.65;;;33.83;;
50249;SDS011;36133;42.522;27.456;2023-04-08T04:25:22;58.63;;;32.75;;
50249;SDS011;36133;42.522;27.456;2023-04-08T04:27:48;58.35;;;36.30;;
50249;SDS011;36133;42.522;27.456;2023-04-08T04:30:16;62.60;;;37.22;;
50249;SDS011;36133;42.522;27.456;2023-04-08T04:32:43;63.35;;;35.05;;
50249;SDS011;36133;42.522;27.456;2023-04-08T04:35:09;65.93;;;34.10;;
50249;SDS011;36133;42.522;27.456;2023-04-08T04:37:36;56.50;;;35.28;;
50249;SDS011;36133;42.522;27.456;2023-04-08T04:40:04;60.80;;;35.53;;
50249;SDS011;36133;42.522;27.456;2023-04-08T04:42:31;64.40;;;37.05;;
50249;SDS011;36133;42.522;27.456;2023-04-08T04:44:57;61.35;;;36.70;;
50249;SDS011;36133;42.522;27.456;2023-04-08T04:47:23;65.15;;;37.50;;
50249;SDS011;36133;42.522;27.456;2023-04-08T04:49:52;63.13;;;38.63;;
50249;SDS011;36133;42.522;27.456;2023-04-08T04:52:17;58.97;;;36.28;;
50249;SDS011;36133;42.522;27.456;2023-04-08T04:54:43;57.67;;;35.00;;
50249;SDS011;36133;42.522;27.456;2023-04-08T04:57:10;55.05;;;33.70;;
50249;SDS011;36133;42.522;27.456;2023-04-08T04:59:36;69.10;;;33.65;;
50249;SDS011;36133;42.522;27.456;2023-04-08T05:02:02;67.63;;;31.90;;
50249;SDS011;36133;42.522;27.456;2023-04-08T05:04:27;54.15;;;31.52;;
50249;SDS011;36133;42.522;27.456;2023-04-08T05:06:53;58.78;;;33.20;;
50249;SDS011;36133;42.522;27.456;2023-04-08T05:09:19;51.22;;;33.30;;
50249;SDS011;36133;42.522;27.456;2023-04-08T05:11:44;59.10;;;29.63;;
50249;SDS011;36133;42.522;27.456;2023-04-08T05:14:10;49.58;;;29.20;;
50249;SDS011;36133;42.522;27.456;2023-04-08T05:16:36;44.22;;;28.15;;
50249;SDS011;36133;42.522;27.456;2023-04-08T05:19:02;44.22;;;29.08;;
50249;SDS011;36133;42.522;27.456;2023-04-08T05:21:28;56.70;;;28.45;;
50249;SDS011;36133;42.522;27.456;2023-04-08T05:23:53;50.53;;;30.55;;
50249;SDS011;36133;42.522;27.456;2023-04-08T05:26:19;41.47;;;27.00;;
50249;SDS011;36133;42.522;27.456;2023-04-08T05:28:48;41.67;;;26.40;;
50249;SDS011;36133;42.522;27.456;2023-04-08T05:31:15;43.58;;;26.23;;
50249;SDS011;36133;42.522;27.456;2023-04-08T05:33:41;42.40;;;26.17;;
50249;SDS011;36133;42.522;27.456;2023-04-08T05:36:10;50.22;;;26.88;;
50249;SDS011;36133;42.522;27.456;2023-04-08T05:38:37;47.65;;;27.60;;
50249;SDS011;36133;42.522;27.456;2023-04-08T05:41:07;42.05;;;27.33;;
50249;SDS011;36133;42.522;27.456;2023-04-08T05:43:33;49.47;;;26.67;;
50249;SDS011;36133;42.522;27.456;2023-04-08T05:45:58;47.22;;;27.33;;
50249;SDS011;36133;42.522;27.456;2023-04-08T05:48:24;47.85;;;28.77;;
50249;SDS011;36133;42.522;27.456;2023-04-08T05:50:50;45.50;;;29.65;;
50249;SDS011;36133;42.522;27.456;2023-04-08T05:53:16;44.15;;;29.00;;
50249;SDS011;36133;42.522;27.456;2023-04-08T05:55:41;49.78;;;30.60;;
50249;SDS011;36133;42.522;27.456;2023-04-08T05:58:07;45.20;;;27.60;;
50249;SDS011;36133;42.522;27.456;2023-04-08T06:00:33;43.38;;;29.50;;
50249;SDS011;36133;42.522;27.456;2023-04-08T06:02:58;44.60;;;26.20;;
50249;SDS011;36133;42.522;27.456;2023-04-08T06:05:24;42.38;;;27.65;;
50249;SDS011;36133;42.522;27.456;2023-04-08T06:07:50;37.15;;;26.58;;
50249;SDS011;36133;42.522;27.456;2023-04-08T06:10:16;36.63;;;21.23;;
50249;SDS011;36133;42.522;27.456;2023-04-08T06:12:44;26.48;;;18.52;;
50249;SDS011;36133;42.522;27.456;2023-04-08T06:15:13;30.08;;;18.70;;
50249;SDS011;36133;42.522;27.456;2023-04-08T06:17:56;26.35;;;17.02;;
50249;SDS011;36133;42.522;27.456;2023-04-08T06:20:22;25.55;;;17.23;;
50249;SDS011;36133;42.522;27.456;2023-04-08T06:22:51;28.13;;;17.95;;
50249;SDS011;36133;42.522;27.456;2023-04-08T06:25:20;28.85;;;17.42;;
50249;SDS011;36133;42.522;27.456;2023-04-08T06:27:51;28.88;;;18.00;;
50249;SDS011;36133;42.522;27.456;2023-04-08T06:30:24;27.42;;;17.73;;
50249;SDS011;36133;42.522;27.456;2023-04-08T06:33:05;24.20;;;17.08;;
50249;SDS011;36133;42.522;27.456;2023-04-08T06:35:34;24.30;;;16.90;;
50249;SDS011;36133;42.522;27.456;2023-04-08T06:38:05;22.38;;;15.73;;
50249;SDS011;36133;42.522;27.456;2023-04-08T06:40:31;21.38;;;15.60;;
50249;SDS011;36133;42.522;27.456;2023-04-08T06:43:05;20.00;;;14.32;;
50249;SDS011;36133;42.522;27.456;2023-04-08T06:45:34;20.85;;;14.98;;
50249;SDS011;36133;42.522;27.456;2023-04-08T06:48:00;24.88;;;15.32;;
50249;SDS011;36133;42.522;27.456;2023-04-08T06:50:59;20.42;;;15.75;;
50249;SDS011;36133;42.522;27.456;2023-04-08T06:53:28;27.88;;;16.15;;
50249;SDS011;36133;42.522;27.456;2023-04-08T06:56:09;26.85;;;17.20;;
50249;SDS011;36133;42.522;27.456;2023-04-08T06:58:37;24.27;;;16.77;;
50249;SDS011;36133;42.522;27.456;2023-04-08T07:01:09;23.42;;;15.88;;
50249;SDS011;36133;42.522;27.456;2023-04-08T07:03:38;30.55;;;16.90;;
50249;SDS011;36133;42.522;27.456;2023-04-08T07:06:04;21.40;;;15.80;;
50249;SDS011;36133;42.522;27.456;2023-04-08T07:08:33;25.95;;;15.57;;
50249;SDS011;36133;42.522;27.456;2023-04-08T07:11:19;23.23;;;15.65;;
50249;SDS011;36133;42.522;27.456;2023-04-08T07:13:49;24.15;;;15.77;;
50249;SDS011;36133;42.522;27.456;2023-04-08T07:16:18;21.58;;;14.05;;
50249;SDS011;36133;42.522;27.456;2023-04-08T07:18:43;21.38;;;13.25;;
50249;SDS011;36133;42.522;27.456;2023-04-08T07:21:28;20.42;;;12.57;;
50249;SDS011;36133;42.522;27.456;2023-04-08T07:23:55;25.77;;;13.75;;
50249;SDS011;36133;42.522;27.456;2023-04-08T07:26:21;17.13;;;12.02;;
50249;SDS011;36133;42.522;27.456;2023-04-08T07:28:49;15.98;;;12.60;;
50249;SDS011;36133;42.522;27.456;2023-04-08T07:31:16;19.67;;;10.98;;
50249;SDS011;36133;42.522;27.456;2023-04-08T07:36:48;19.00;;;11.40;;
50249;SDS011;36133;42.522;27.456;2023-04-08T07:39:17;19.25;;;10.88;;
50249;SDS011;36133;42.522;27.456;2023-04-08T07:41:46;12.52;;;9.55;;
50249;SDS011;36133;42.522;27.456;2023-04-08T07:44:12;14.45;;;10.02;;
50249;SDS011;36133;42.522;27.456;2023-04-08T07:46:41;14.43;;;10.02;;
50249;SDS011;36133;42.522;27.456;2023-04-08T07:49:15;11.03;;;8.33;;
50249;SDS011;36133;42.522;27.456;2023-04-08T07:51:48;14.93;;;8.95;;
50249;SDS011;36133;42.522;27.456;2023-04-08T07:54:13;15.05;;;9.40;;
50249;SDS011;36133;42.522;27.456;2023-04-08T07:56:44;13.40;;;9.95;;
50249;SDS011;36133;42.522;27.456;2023-04-08T07:59:10;11.55;;;9.00;;
50249;SDS011;36133;42.522;27.456;2023-04-08T08:01:38;13.95;;;8.85;;
50249;SDS011;36133;42.522;27.456;2023-04-08T08:04:04;9.55;;;7.72;;
50249;SDS011;36133;42.522;27.456;2023-04-08T08:06:32;13.90;;;8.70;;
50249;SDS011;36133;42.522;27.456;2023-04-08T08:08:58;15.30;;;8.60;;
50249;SDS011;36133;42.522;27.456;2023-04-08T08:11:30;12.45;;;7.70;;
50249;SDS011;36133;42.522;27.456;2023-04-08T08:13:57;14.13;;;9.27;;
50249;SDS011;36133;42.522;27.456;2023-04-08T08:16:36;14.75;;;9.10;;
50249;SDS011;36133;42.522;27.456;2023-04-08T08:19:06;15.85;;;8.40;;
50249;SDS011;36133;42.522;27.456;2023-04-08T08:24:45;12.60;;;8.40;;
50249;SDS011;36133;42.522;27.456;2023-04-08T08:27:11;8.82;;;7.30;;
50249;SDS011;36133;42.522;27.456;2023-04-08T08:29:37;10.48;;;7.63;;
50249;SDS011;36133;42.522;27.456;2023-04-08T08:32:03;10.27;;;7.90;;
50249;SDS011;36133;42.522;27.456;2023-04-08T08:34:29;14.73;;;8.23;;
50249;SDS011;36133;42.522;27.456;2023-04-08T08:37:00;12.00;;;7.82;;
50249;SDS011;36133;42.522;27.456;2023-04-08T08:39:25;10.45;;;8.05;;
50249;SDS011;36133;42.522;27.456;2023-04-08T08:41:51;9.75;;;7.75;;
50249;SDS011;36133;42.522;27.456;2023-04-08T08:44:17;8.93;;;6.85;;
50249;SDS011;36133;42.522;27.456;2023-04-08T08:46:46;11.60;;;6.45;;
50249;SDS011;36133;42.522;27.456;2023-04-08T08:49:28;10.95;;;7.05;;
50249;SDS011;36133;42.522;27.456;2023-04-08T08:52:01;10.27;;;6.75;;
50249;SDS011;36133;42.522;27.456;2023-04-08T08:54:26;11.32;;;6.88;;
50249;SDS011;36133;42.522;27.456;2023-04-08T08:56:53;7.00;;;6.05;;
50249;SDS011;36133;42.522;27.456;2023-04-08T08:59:28;8.25;;;7.00;;
50249;SDS011;36133;42.522;27.456;2023-04-08T09:01:58;11.50;;;7.72;;
50249;SDS011;36133;42.522;27.456;2023-04-08T09:04:24;8.60;;;5.93;;
50249;SDS011;36133;42.522;27.456;2023-04-08T09:07:11;8.30;;;6.65;;
50249;SDS011;36133;42.522;27.456;2023-04-08T09:09:47;8.95;;;6.63;;
50249;SDS011;36133;42.522;27.456;2023-04-08T09:12:20;11.70;;;6.90;;
50249;SDS011;36133;42.522;27.456;2023-04-08T09:15:28;7.95;;;6.40;;
50249;SDS011;36133;42.522;27.456;2023-04-08T09:17:50;10.50;;;7.50;;
50249;SDS011;36133;42.522;27.456;2023-04-08T09:20:16;10.77;;;7.38;;
50249;SDS011;36133;42.522;27.456;2023-04-08T09:25:49;11.50;;;7.13;;
50249;SDS011;36133;42.522;27.456;2023-04-08T09:28:25;10.15;;;7.57;;
50249;SDS011;36133;42.522;27.456;2023-04-08T09:30:58;8.93;;;6.47;;
50249;SDS011;36133;42.522;27.456;2023-04-08T09:33:30;8.35;;;7.55;;
50249;SDS011;36133;42.522;27.456;2023-04-08T09:35:56;7.80;;;6.65;;
50249;SDS011;36133;42.522;27.456;2023-04-08T09:38:22;8.50;;;6.00;;
50249;SDS011;36133;42.522;27.456;2023-04-08T09:40:48;8.70;;;5.85;;
50249;SDS011;36133;42.522;27.456;2023-04-08T09:43:18;7.75;;;5.47;;
50249;SDS011;36133;42.522;27.456;2023-04-08T09:45:50;8.98;;;5.20;;
50249;SDS011;36133;42.522;27.456;2023-04-08T09:48:38;6.68;;;5.45;;
50249;SDS011;36133;42.522;27.456;2023-04-08T09:51:07;8.43;;;5.95;;
50249;SDS011;36133;42.522;27.456;2023-04-08T09:53:40;5.53;;;4.38;;
50249;SDS011;36133;42.522;27.456;2023-04-08T09:56:14;9.18;;;4.88;;
50249;SDS011;36133;42.522;27.456;2023-04-08T09:59:08;9.45;;;5.18;;
50249;SDS011;36133;42.522;27.456;2023-04-08T10:01:39;5.97;;;4.70;;
50249;SDS011;36133;42.522;27.456;2023-04-08T10:04:15;5.97;;;4.43;;
50249;SDS011;36133;42.522;27.456;2023-04-08T10:07:08;5.05;;;4.55;;
50249;SDS011;36133;42.522;27.456;2023-04-08T10:09:33;6.47;;;4.18;;
50249;SDS011;36133;42.522;27.456;2023-04-08T10:12:02;5.00;;;4.25;;
50249;SDS011;36133;42.522;27.456;2023-04-08T10:14:32;3.80;;;3.47;;
50249;SDS011;36133;42.522;27.456;2023-04-08T10:19:52;9.07;;;4.95;;
50249;SDS011;36133;42.522;27.456;2023-04-08T10:25:39;5.13;;;3.92;;
50249;SDS011;36133;42.522;27.456;2023-04-08T10:28:22;6.47;;;4.07;;
50249;SDS011;36133;42.522;27.456;2023-04-08T10:30:59;6.63;;;4.20;;
50249;SDS011;36133;42.522;27.456;2023-04-08T10:36:07;6.53;;;3.75;;
50249;SDS011;36133;42.522;27.456;2023-04-08T10:39:02;4.97;;;3.90;;
50249;SDS011;36133;42.522;27.456;2023-04-08T10:41:41;4.50;;;3.47;;
50249;SDS011;36133;42.522;27.456;2023-04-08T10:44:22;7.15;;;4.15;;
50249;SDS011;36133;42.522;27.456;2023-04-08T10:47:14;4.47;;;3.85;;
50249;SDS011;36133;42.522;27.456;2023-04-08T10:52:17;6.15;;;4.00;;
50249;SDS011;36133;42.522;27.456;2023-04-08T10:54:51;5.90;;;3.57;;
50249;SDS011;36133;42.522;27.456;2023-04-08T10:57:25;5.75;;;4.00;;
50249;SDS011;36133;42.522;27.456;2023-04-08T11:00:51;4.65;;;3.50;;
50249;SDS011;36133;42.522;27.456;2023-04-08T11:05:31;5.38;;;3.60;;
50249;SDS011;36133;42.522;27.456;2023-04-08T11:08:04;6.05;;;3.80;;
50249;SDS011;36133;42.522;27.456;2023-04-08T11:10:36;5.45;;;3.88;;
50249;SDS011;36133;42.522;27.456;2023-04-08T11:13:17;2.92;;;2.63;;
50249;SDS011;36133;42.522;27.456;2023-04-08T11:15:58;5.45;;;4.30;;
50249;SDS011;36133;42.522;27.456;2023-04-08T11:18:41;5.55;;;3.70;;
50249;SDS011;36133;42.522;27.456;2023-04-08T11:21:07;4.35;;;3.95;;
50249;SDS011;36133;42.522;27.456;2023-04-08T11:23:36;3.90;;;3.17;;
50249;SDS011;36133;42.522;27.456;2023-04-08T11:26:18;4.28;;;3.17;;
50249;SDS011;36133;42.522;27.456;2023-04-08T11:28:47;4.93;;;2.53;;
50249;SDS011;36133;42.522;27.456;2023-04-08T11:31:18;4.13;;;2.72;;
50249;SDS011;36133;42.522;27.456;2023-04-08T11:33:46;3.60;;;3.22;;
50249;SDS011;36133;42.522;27.456;2023-04-08T11:39:22;6.68;;;3.28;;
50249;SDS011;36133;42.522;27.456;2023-04-08T11:41:50;5.90;;;3.92;;
50249;SDS011;36133;42.522;27.456;2023-04-08T11:44:29;5.82;;;3.65;;
50249;SDS011;36133;42.522;27.456;2023-04-08T11:46:56;4.55;;;3.17;;
50249;SDS011;36133;42.522;27.456;2023-04-08T11:49:26;3.55;;;2.88;;
50249;SDS011;36133;42.522;27.456;2023-04-08T11:51:58;4.43;;;2.80;;
50249;SDS011;36133;42.522;27.456;2023-04-08T11:54:33;6.68;;;2.83;;
50249;SDS011;36133;42.522;27.456;2023-04-08T11:57:05;7.10;;;3.38;;
50249;SDS011;36133;42.522;27.456;2023-04-08T11:59:31;4.32;;;3.00;;
50249;SDS011;36133;42.522;27.456;2023-04-08T12:01:57;3.65;;;3.13;;
50249;SDS011;36133;42.522;27.456;2023-04-08T12:04:23;3.17;;;2.70;;
50249;SDS011;36133;42.522;27.456;2023-04-08T12:06:49;4.55;;;3.25;;
50249;SDS011;36133;42.522;27.456;2023-04-08T12:09:18;4.63;;;3.45;;
50249;SDS011;36133;42.522;27.456;2023-04-08T12:11:52;3.42;;;3.00;;
50249;SDS011;36133;42.522;27.456;2023-04-08T12:14:21;8.30;;;3.58;;
50249;SDS011;36133;42.522;27.456;2023-04-08T12:16:55;7.30;;;3.05;;
50249;SDS011;36133;42.522;27.456;2023-04-08T12:19:22;5.40;;;4.03;;
50249;SDS011;36133;42.522;27.456;2023-04-08T12:21:53;7.70;;;3.67;;
50249;SDS011;36133;42.522;27.456;2023-04-08T12:24:39;5.47;;;2.90;;
50249;SDS011;36133;42.522;27.456;2023-04-08T12:27:05;4.95;;;3.05;;
50249;SDS011;36133;42.522;27.456;2023-04-08T12:29:36;4.75;;;2.97;;
50249;SDS011;36133;42.522;27.456;2023-04-08T12:35:26;3.20;;;2.80;;
50249;SDS011;36133;42.522;27.456;2023-04-08T12:37:52;5.25;;;3.50;;
50249;SDS011;36133;42.522;27.456;2023-04-08T12:40:20;7.43;;;3.30;;
50249;SDS011;36133;42.522;27.456;2023-04-08T12:45:49;4.43;;;2.53;;
50249;SDS011;36133;42.522;27.456;2023-04-08T12:48:36;4.55;;;3.00;;
50249;SDS011;36133;42.522;27.456;2023-04-08T12:51:23;4.70;;;3.17;;
50249;SDS011;36133;42.522;27.456;2023-04-08T12:56:46;4.43;;;3.40;;
50249;SDS011;36133;42.522;27.456;2023-04-08T13:02:17;7.07;;;3.80;;
50249;SDS011;36133;42.522;27.456;2023-04-08T13:05:09;5.55;;;3.75;;
50249;SDS011;36133;42.522;27.456;2023-04-08T13:14:24;6.63;;;3.95;;
50249;SDS011;36133;42.522;27.456;2023-04-08T13:17:00;7.90;;;4.65;;
50249;SDS011;36133;42.522;27.456;2023-04-08T13:19:41;6.35;;;4.22;;
50249;SDS011;36133;42.522;27.456;2023-04-08T13:22:14;5.60;;;3.83;;
50249;SDS011;36133;42.522;27.456;2023-04-08T13:25:01;5.38;;;3.95;;
50249;SDS011;36133;42.522;27.456;2023-04-08T13:27:55;6.70;;;4.15;;
50249;SDS011;36133;42.522;27.456;2023-04-08T13:30:46;6.95;;;4.10;;
50249;SDS011;36133;42.522;27.456;2023-04-08T13:46:37;6.80;;;4.13;;
50249;SDS011;36133;42.522;27.456;2023-04-08T13:54:30;6.50;;;4.68;;
50249;SDS011;36133;42.522;27.456;2023-04-08T14:05:06;8.75;;;4.68;;
50249;SDS011;36133;42.522;27.456;2023-04-08T14:13:00;10.88;;;5.88;;
50249;SDS011;36133;42.522;27.456;2023-04-08T14:15:40;10.10;;;5.68;;
50249;SDS011;36133;42.522;27.456;2023-04-08T14:18:18;8.57;;;5.28;;
50249;SDS011;36133;42.522;27.456;2023-04-08T14:23:51;9.40;;;5.20;;
50249;SDS011;36133;42.522;27.456;2023-04-08T14:26:59;10.52;;;5.60;;
50249;SDS011;36133;42.522;27.456;2023-04-08T14:29:38;6.03;;;4.38;;
50249;SDS011;36133;42.522;27.456;2023-04-08T14:37:31;14.25;;;5.68;;
50249;SDS011;36133;42.522;27.456;2023-04-08T14:40:38;8.52;;;5.78;;
50249;SDS011;36133;42.522;27.456;2023-04-08T14:45:40;10.77;;;6.05;;
50249;SDS011;36133;42.522;27.456;2023-04-08T14:54:00;9.77;;;4.68;;
50249;SDS011;36133;42.522;27.456;2023-04-08T14:56:32;7.78;;;4.82;;
50249;SDS011;36133;42.522;27.456;2023-04-08T14:59:02;9.20;;;5.38;;
50249;SDS011;36133;42.522;27.456;2023-04-08T15:01:38;6.05;;;5.07;;
50249;SDS011;36133;42.522;27.456;2023-04-08T15:04:12;9.15;;;4.45;;
50249;SDS011;36133;42.522;27.456;2023-04-08T15:09:26;6.13;;;4.53;;
50249;SDS011;36133;42.522;27.456;2023-04-08T15:11:52;8.88;;;4.90;;
50249;SDS011;36133;42.522;27.456;2023-04-08T15:14:22;8.07;;;5.10;;
50249;SDS011;36133;42.522;27.456;2023-04-08T15:19:42;9.63;;;5.00;;
50249;SDS011;36133;42.522;27.456;2023-04-08T15:29:56;10.98;;;4.82;;
50249;SDS011;36133;42.522;27.456;2023-04-08T15:32:27;9.07;;;4.82;;
50249;SDS011;36133;42.522;27.456;2023-04-08T15:35:21;7.22;;;5.15;;
50249;SDS011;36133;42.522;27.456;2023-04-08T15:37:58;6.30;;;4.88;;
50249;SDS011;36133;42.522;27.456;2023-04-08T15:40:36;10.60;;;4.65;;
50249;SDS011;36133;42.522;27.456;2023-04-08T15:43:13;6.85;;;4.60;;
50249;SDS011;36133;42.522;27.456;2023-04-08T15:51:15;6.75;;;4.70;;
50249;SDS011;36133;42.522;27.456;2023-04-08T15:53:53;9.45;;;5.30;;
50249;SDS011;36133;42.522;27.456;2023-04-08T15:56:45;7.63;;;4.90;;
50249;SDS011;36133;42.522;27.456;2023-04-08T15:59:29;8.85;;;4.10;;
50249;SDS011;36133;42.522;27.456;2023-04-08T16:02:13;5.43;;;4.03;;
50249;SDS011;36133;42.522;27.456;2023-04-08T16:04:39;9.77;;;5.30;;
50249;SDS011;36133;42.522;27.456;2023-04-08T16:07:34;10.10;;;4.90;;
50249;SDS011;36133;42.522;27.456;2023-04-08T16:10:30;7.90;;;4.22;;
50249;SDS011;36133;42.522;27.456;2023-04-08T16:13:06;6.95;;;5.00;;
50249;SDS011;36133;42.522;27.456;2023-04-08T16:15:35;10.52;;;5.18;;
50249;SDS011;36133;42.522;27.456;2023-04-08T16:18:13;12.65;;;5.78;;
50249;SDS011;36133;42.522;27.456;2023-04-08T16:20:49;5.57;;;3.97;;
50249;SDS011;36133;42.522;27.456;2023-04-08T16:26:06;8.82;;;4.43;;
50249;SDS011;36133;42.522;27.456;2023-04-08T16:28:45;6.80;;;4.90;;
50249;SDS011;36133;42.522;27.456;2023-04-08T16:31:12;9.15;;;5.05;;
50249;SDS011;36133;42.522;27.456;2023-04-08T16:33:38;10.38;;;4.70;;
50249;SDS011;36133;42.522;27.456;2023-04-08T16:36:11;7.32;;;4.22;;
50249;SDS011;36133;42.522;27.456;2023-04-08T16:38:39;11.25;;;4.40;;
50249;SDS011;36133;42.522;27.456;2023-04-08T16:41:08;8.40;;;4.32;;
50249;SDS011;36133;42.522;27.456;2023-04-08T16:43:36;7.53;;;5.05;;
50249;SDS011;36133;42.522;27.456;2023-04-08T16:46:11;7.75;;;4.47;;